Time;durP1;ratioP1;P1;durP2;ratioP2;P2;SDS_P1;SDS_P2;PMS_P1;PMS_P2;Temp;Humidity;BMP_temperature;BMP_pressure;BME280_temperature;BME280_humidity;BME280_pressure;Samples;Min_cycle;Max_cycle;Signal;HPM_P1;HPM_P2
2023/06/08 00:00:05;;;;;;;11.50;6.78;;;;;;;18.71;53.55;101724.00;4989565;28;20068;-83
2023/06/08 00:02:30;;;;;;;14.57;6.68;;;;;;;18.64;53.97;101715.44;4988296;28;20053;-83
2023/06/08 00:04:57;;;;;;;14.52;6.95;;;;;;;18.62;54.20;101714.69;4972332;28;20085;-83
2023/06/08 00:07:24;;;;;;;15.00;7.03;;;;;;;18.69;53.98;101712.50;4987385;28;20030;-83
2023/06/08 00:09:50;;;;;;;14.85;6.50;;;;;;;18.81;53.96;101719.81;4965136;28;20106;-83
2023/06/08 00:12:16;;;;;;;14.95;6.55;;;;;;;18.80;54.18;101712.75;4985956;28;20093;-83
2023/06/08 00:14:42;;;;;;;12.85;7.10;;;;;;;18.77;54.12;101719.13;4993418;28;20064;-83
2023/06/08 00:17:08;;;;;;;12.93;6.95;;;;;;;18.83;53.73;101724.09;4989040;28;20033;-83
2023/06/08 00:19:38;;;;;;;14.27;6.78;;;;;;;18.88;53.63;101722.97;4983509;28;20485;-83
2023/06/08 00:22:05;;;;;;;16.60;7.55;;;;;;;18.89;53.83;101716.69;4988334;28;20130;-83
2023/06/08 00:24:36;;;;;;;16.08;7.60;;;;;;;18.74;53.96;101718.44;4987761;28;20108;-83
2023/06/08 00:27:01;;;;;;;13.40;7.37;;;;;;;18.74;54.04;101721.13;4987177;28;20036;-83
2023/06/08 00:29:26;;;;;;;14.93;7.65;;;;;;;18.75;54.33;101720.19;4991808;28;20022;-83
2023/06/08 00:31:52;;;;;;;14.77;7.22;;;;;;;18.79;54.55;101716.34;4986746;28;20423;-83
2023/06/08 00:34:18;;;;;;;15.00;7.65;;;;;;;18.78;54.43;101710.13;4986216;28;20030;-83
2023/06/08 00:36:44;;;;;;;12.23;7.60;;;;;;;18.74;54.48;101710.41;4983901;28;20035;-83
2023/06/08 00:39:09;;;;;;;14.43;7.55;;;;;;;18.61;54.71;101712.97;4985373;28;20022;-83
2023/06/08 00:41:35;;;;;;;10.48;6.40;;;;;;;18.60;54.47;101709.41;4988771;28;20046;-83
2023/06/08 00:44:04;;;;;;;13.18;6.80;;;;;;;18.57;54.75;101706.91;4983762;28;20371;-83
2023/06/08 00:46:30;;;;;;;15.40;7.15;;;;;;;18.60;55.04;101709.41;4986065;28;20492;-83
2023/06/08 00:48:57;;;;;;;14.48;6.95;;;;;;;18.57;54.93;101711.41;4989065;28;20027;-83
2023/06/08 00:51:24;;;;;;;13.95;7.45;;;;;;;18.49;55.31;101706.50;4988111;28;20457;-83
2023/06/08 00:53:51;;;;;;;12.43;7.28;;;;;;;18.47;55.46;101699.53;4987806;28;20405;-83
2023/06/08 00:56:18;;;;;;;13.55;7.55;;;;;;;18.36;55.47;101690.28;4989923;28;20108;-83
2023/06/08 00:58:49;;;;;;;13.07;6.80;;;;;;;18.30;55.69;101690.66;4989100;28;20030;-83
2023/06/08 01:01:18;;;;;;;16.25;7.82;;;;;;;18.28;56.14;101686.38;4988163;28;20073;-83
2023/06/08 01:03:46;;;;;;;12.32;7.03;;;;;;;18.24;56.22;101685.69;4988766;28;20065;-83
2023/06/08 01:06:16;;;;;;;15.05;6.80;;;;;;;18.22;56.42;101690.25;4991162;28;20038;-83
2023/06/08 01:09:00;;;;;;;14.88;6.82;;;;;;;18.24;55.58;101691.03;4987938;28;20057;-83
2023/06/08 01:11:32;;;;;;;15.45;6.88;;;;;;;18.19;56.04;101685.09;4985545;28;20042;-83
2023/06/08 01:14:17;;;;;;;16.90;7.20;;;;;;;18.17;56.10;101686.97;4981656;28;20026;-83
2023/06/08 01:16:49;;;;;;;15.15;7.28;;;;;;;18.01;57.14;101680.81;4983559;28;20133;-83
2023/06/08 01:19:36;;;;;;;14.70;6.90;;;;;;;17.98;56.93;101686.34;4984862;28;20026;-83
2023/06/08 01:22:20;;;;;;;13.43;7.03;;;;;;;17.95;56.66;101684.72;4987543;28;20121;-83
2023/06/08 01:24:49;;;;;;;14.10;7.30;;;;;;;17.90;57.18;101694.78;4980718;28;20045;-83
2023/06/08 01:27:17;;;;;;;15.35;7.68;;;;;;;17.90;57.08;101696.59;4988445;28;20035;-83
2023/06/08 01:29:44;;;;;;;14.27;7.07;;;;;;;17.87;57.23;101680.75;4982885;28;20630;-83
2023/06/08 01:32:10;;;;;;;11.15;7.10;;;;;;;17.83;57.53;101680.06;4984230;28;20042;-83
2023/06/08 01:34:35;;;;;;;12.82;7.07;;;;;;;17.81;57.33;101687.28;4982164;28;20107;-83
2023/06/08 01:37:21;;;;;;;14.60;7.55;;;;;;;17.76;57.20;101682.19;4985592;28;20027;-83
2023/06/08 01:40:12;;;;;;;16.35;7.40;;;;;;;17.77;57.35;101689.28;4972869;28;20030;-83
2023/06/08 01:42:41;;;;;;;11.70;7.05;;;;;;;17.74;57.96;101686.78;4981221;28;20034;-83
2023/06/08 01:45:16;;;;;;;14.48;7.28;;;;;;;17.74;57.35;101684.09;4967634;28;20025;-83
2023/06/08 01:47:56;;;;;;;15.95;8.00;;;;;;;17.74;57.60;101677.91;4985515;28;20034;-83
2023/06/08 01:50:22;;;;;;;16.63;6.68;;;;;;;17.64;58.21;101674.84;4963691;28;20077;-83
2023/06/08 01:52:47;;;;;;;13.98;7.50;;;;;;;17.59;58.00;101672.44;4983113;28;20018;-83
2023/06/08 01:55:20;;;;;;;16.40;8.07;;;;;;;17.52;58.33;101668.38;4984620;28;20037;-83
2023/06/08 01:57:46;;;;;;;18.85;8.20;;;;;;;17.42;58.85;101675.19;4987776;28;20034;-83
2023/06/08 02:00:14;;;;;;;14.02;7.43;;;;;;;17.32;58.66;101664.13;4979828;28;20034;-83
2023/06/08 02:02:39;;;;;;;13.60;7.22;;;;;;;17.32;59.00;101664.13;4983738;28;20030;-83
2023/06/08 02:05:09;;;;;;;12.70;7.90;;;;;;;17.31;59.22;101670.44;4987567;28;20129;-83
2023/06/08 02:07:34;;;;;;;9.73;7.25;;;;;;;17.31;59.25;101673.13;4985997;28;20382;-83
2023/06/08 02:09:59;;;;;;;13.10;7.18;;;;;;;17.34;58.87;101669.38;4985381;28;20042;-83
2023/06/08 02:12:25;;;;;;;12.05;6.97;;;;;;;17.32;58.85;101664.13;4985630;28;20631;-83
2023/06/08 02:14:50;;;;;;;14.10;7.82;;;;;;;17.25;59.02;101669.91;4979255;28;20045;-83
2023/06/08 02:17:18;;;;;;;10.07;7.10;;;;;;;17.17;59.42;101659.66;4984467;28;20022;-84
2023/06/08 02:19:44;;;;;;;15.00;7.70;;;;;;;17.17;59.70;101672.16;4987502;28;20026;-83
2023/06/08 02:22:09;;;;;;;15.57;7.70;;;;;;;17.14;59.63;101672.31;4982281;28;20027;-83
2023/06/08 02:24:35;;;;;;;18.52;8.30;;;;;;;17.05;59.86;101668.31;4983831;28;20081;-83
2023/06/08 02:27:00;;;;;;;12.70;7.78;;;;;;;17.05;60.05;101677.19;4984782;28;20034;-83
2023/06/08 02:29:27;;;;;;;13.15;7.53;;;;;;;17.03;59.68;101676.44;4994958;28;20034;-83
2023/06/08 02:31:53;;;;;;;14.25;7.63;;;;;;;17.08;59.58;101678.84;4989228;28;20076;-83
2023/06/08 02:34:18;;;;;;;13.10;7.75;;;;;;;17.09;59.80;101683.25;4985164;28;20030;-83
2023/06/08 02:36:43;;;;;;;14.63;7.90;;;;;;;17.08;59.33;101677.03;4987922;28;20037;-82
2023/06/08 02:39:09;;;;;;;14.40;7.65;;;;;;;17.06;59.79;101678.06;4989682;28;20109;-83
2023/06/08 02:41:34;;;;;;;12.90;7.85;;;;;;;17.04;59.97;101671.94;4988517;28;20385;-83
2023/06/08 02:43:59;;;;;;;15.60;7.53;;;;;;;16.85;59.67;101676.56;4986481;28;20027;-83
2023/06/08 02:46:25;;;;;;;13.70;7.65;;;;;;;16.70;60.56;101672.84;4988035;28;20103;-83
2023/06/08 02:48:50;;;;;;;17.73;7.85;;;;;;;16.64;60.75;101675.81;4984973;28;20037;-83
2023/06/08 02:51:16;;;;;;;12.68;7.55;;;;;;;16.56;60.94;101684.25;4986271;28;20049;-83
2023/06/08 02:53:42;;;;;;;14.38;8.27;;;;;;;16.46;61.46;101673.19;4986156;28;20433;-83
2023/06/08 02:56:07;;;;;;;18.00;8.68;;;;;;;16.43;61.16;101684.00;4986971;28;20036;-83
2023/06/08 02:58:33;;;;;;;16.60;8.07;;;;;;;16.43;61.15;101684.00;4988045;28;20501;-83
2023/06/08 03:01:00;;;;;;;16.45;8.15;;;;;;;16.39;61.41;101684.25;4970335;28;20038;-83
2023/06/08 03:03:27;;;;;;;16.58;9.00;;;;;;;16.35;61.32;101678.19;4966444;28;20026;-83
2023/06/08 03:05:59;;;;;;;16.63;9.15;;;;;;;16.28;61.56;101677.66;4988977;28;20057;-83
2023/06/08 03:08:28;;;;;;;14.73;8.52;;;;;;;16.20;62.12;101671.81;4990412;28;20152;-83
2023/06/08 03:10:54;;;;;;;13.20;9.23;;;;;;;16.07;62.37;101666.25;4989146;28;20041;-83
2023/06/08 03:13:21;;;;;;;15.25;8.23;;;;;;;16.06;62.95;101667.19;4984975;28;20436;-83
2023/06/08 03:15:46;;;;;;;17.30;8.57;;;;;;;15.98;63.16;101661.34;4985185;28;20041;-83
2023/06/08 03:18:11;;;;;;;15.15;8.55;;;;;;;16.07;63.05;101666.25;4987458;28;20034;-83
2023/06/08 03:20:37;;;;;;;17.25;8.85;;;;;;;16.09;62.93;101663.50;4986123;28;20034;-83
2023/06/08 03:23:04;;;;;;;16.35;9.23;;;;;;;16.08;62.83;101662.63;4984015;28;20034;-83
2023/06/08 03:25:30;;;;;;;16.58;8.70;;;;;;;16.07;62.58;101660.03;4987030;28;20121;-83
2023/06/08 03:27:55;;;;;;;16.23;8.85;;;;;;;16.15;62.86;101668.53;4987294;28;20057;-83
2023/06/08 03:30:20;;;;;;;19.65;8.70;;;;;;;16.25;62.62;101667.13;4988600;28;20531;-83
2023/06/08 03:32:48;;;;;;;16.23;8.75;;;;;;;16.21;62.19;101668.22;4984277;28;20030;-83
2023/06/08 03:35:17;;;;;;;15.77;8.63;;;;;;;16.19;62.63;101670.13;4986738;28;20022;-83
2023/06/08 03:37:43;;;;;;;18.63;9.07;;;;;;;16.24;61.97;101667.22;4986595;28;20023;-83
2023/06/08 03:40:09;;;;;;;18.75;8.77;;;;;;;16.14;62.56;101671.28;4986679;28;20409;-83
2023/06/08 03:42:34;;;;;;;13.93;8.63;;;;;;;16.17;62.42;101671.97;4987034;28;20030;-82
2023/06/08 03:44:59;;;;;;;16.77;9.35;;;;;;;16.17;62.61;101674.63;4985989;28;20022;-83
2023/06/08 03:47:25;;;;;;;18.60;9.02;;;;;;;16.11;62.93;101672.28;4983386;28;20100;-83
2023/06/08 03:49:51;;;;;;;15.43;8.45;;;;;;;15.89;62.90;101666.28;4983098;28;20034;-83
2023/06/08 03:52:16;;;;;;;21.60;8.93;;;;;;;15.85;63.59;101672.69;4978718;28;20521;-83
2023/06/08 03:54:41;;;;;;;14.85;9.02;;;;;;;15.75;63.59;101673.16;4986733;28;20030;-83
2023/06/08 03:57:07;;;;;;;18.00;9.35;;;;;;;15.78;63.76;101665.00;4981816;28;20057;-83
2023/06/08 03:59:32;;;;;;;20.27;9.15;;;;;;;15.68;63.84;101669.06;4986861;28;20028;-83
2023/06/08 04:01:57;;;;;;;17.83;8.80;;;;;;;15.69;63.99;101665.47;4981631;28;20026;-83
2023/06/08 04:04:24;;;;;;;13.15;8.52;;;;;;;15.85;63.25;101672.69;4980698;28;20043;-83
2023/06/08 04:06:51;;;;;;;15.02;8.70;;;;;;;15.79;63.61;101672.06;4982843;28;20034;-83
2023/06/08 04:09:16;;;;;;;17.08;9.50;;;;;;;15.76;64.10;101676.69;4983273;28;20385;-83
2023/06/08 04:11:41;;;;;;;14.23;9.73;;;;;;;15.75;63.80;101672.28;4983349;28;20026;-82
2023/06/08 04:14:06;;;;;;;19.63;9.70;;;;;;;15.68;63.65;101674.41;4984265;28;20080;-83
2023/06/08 04:16:32;;;;;;;16.55;9.40;;;;;;;15.61;64.50;101672.06;4982557;28;20033;-83
2023/06/08 04:18:57;;;;;;;15.45;9.35;;;;;;;15.58;64.55;101667.75;4982589;28;20015;-83
2023/06/08 04:21:25;;;;;;;16.27;9.15;;;;;;;15.55;64.47;101662.56;4984927;28;20305;-83
2023/06/08 04:23:50;;;;;;;15.98;9.68;;;;;;;15.45;64.57;101678.13;4981770;28;20474;-82
2023/06/08 04:26:16;;;;;;;19.60;10.23;;;;;;;15.42;64.77;101674.72;4982743;28;20038;-83
2023/06/08 04:28:41;;;;;;;17.73;9.68;;;;;;;15.48;64.59;101671.78;4980697;28;20069;-83
2023/06/08 04:31:07;;;;;;;18.60;10.02;;;;;;;15.61;64.39;101666.72;4984817;28;20023;-83
2023/06/08 04:33:32;;;;;;;15.95;9.77;;;;;;;15.71;64.00;101657.38;4984850;28;20100;-83
2023/06/08 04:35:58;;;;;;;20.08;9.82;;;;;;;15.66;64.07;101668.25;4982411;28;20140;-82
2023/06/08 04:38:23;;;;;;;16.95;9.57;;;;;;;15.64;64.46;101663.97;4982314;28;20030;-83
2023/06/08 04:40:53;;;;;;;18.63;10.30;;;;;;;15.63;64.52;101656.88;4985267;28;20030;-83
2023/06/08 04:43:21;;;;;;;17.23;9.90;;;;;;;15.60;64.64;101663.19;4982560;28;20105;-83
2023/06/08 04:45:57;;;;;;;18.67;9.48;;;;;;;15.61;64.12;101661.41;4987949;28;20056;-82
2023/06/08 04:48:25;;;;;;;13.43;9.07;;;;;;;15.62;64.24;101661.34;4984996;28;20634;-83
2023/06/08 04:50:51;;;;;;;16.17;9.93;;;;;;;15.69;63.97;101662.78;4983599;28;20029;-83
2023/06/08 04:53:16;;;;;;;16.70;10.73;;;;;;;15.71;64.44;101652.03;4986253;28;20034;-83
2023/06/08 04:55:45;;;;;;;14.15;9.73;;;;;;;15.86;64.08;101658.47;4983159;28;20604;-83
2023/06/08 04:58:12;;;;;;;20.38;10.55;;;;;;;15.86;64.06;101666.47;4986547;28;20432;-83
2023/06/08 05:00:38;;;;;;;17.23;9.60;;;;;;;15.99;63.59;101657.78;4978169;28;20026;-82
2023/06/08 05:03:03;;;;;;;19.63;10.38;;;;;;;16.05;63.16;101654.78;4977944;28;20497;-83
2023/06/08 05:05:28;;;;;;;18.05;10.05;;;;;;;16.10;63.01;101665.22;4983844;28;20061;-82
2023/06/08 05:07:53;;;;;;;19.63;11.48;;;;;;;16.05;63.01;101657.47;4985745;28;20460;-83
2023/06/08 05:10:20;;;;;;;16.17;10.05;;;;;;;16.05;62.97;101657.47;4981898;28;20037;-83
2023/06/08 05:12:45;;;;;;;15.43;9.65;;;;;;;16.01;62.81;101661.22;4965852;28;20034;-82
2023/06/08 05:15:10;;;;;;;19.80;9.68;;;;;;;16.11;62.73;101666.09;4976985;28;20516;-82
2023/06/08 05:17:36;;;;;;;19.90;9.77;;;;;;;16.22;62.46;101659.25;4981494;28;20018;-82
2023/06/08 05:20:01;;;;;;;14.05;8.95;;;;;;;16.26;62.02;101657.31;4985010;28;20031;-83
2023/06/08 05:22:26;;;;;;;19.23;9.80;;;;;;;16.29;61.86;101666.03;4984233;28;20389;-83
2023/06/08 05:24:52;;;;;;;19.27;10.27;;;;;;;16.36;61.66;101665.72;4963696;28;20034;-85
2023/06/08 05:27:17;;;;;;;17.60;9.60;;;;;;;16.45;61.58;101666.09;4964891;28;20022;-82
2023/06/08 05:29:42;;;;;;;14.85;9.55;;;;;;;16.45;61.34;101663.44;4981401;28;21000;-82
2023/06/08 05:32:08;;;;;;;23.60;9.75;;;;;;;16.53;61.05;101660.38;4980533;28;20030;-82
2023/06/08 05:34:33;;;;;;;18.83;9.68;;;;;;;16.62;61.30;101654.56;4967274;28;20137;-83
2023/06/08 05:36:58;;;;;;;18.55;10.63;;;;;;;16.64;60.80;101652.66;4983002;28;20113;-80
2023/06/08 05:39:23;;;;;;;17.30;10.10;;;;;;;16.64;60.63;101649.13;4981631;28;20081;-82
2023/06/08 05:41:49;;;;;;;12.98;9.88;;;;;;;16.71;60.24;101651.41;4981729;28;20019;-82
2023/06/08 05:44:14;;;;;;;17.67;10.23;;;;;;;16.77;60.73;101652.91;4982783;28;20073;-82
2023/06/08 05:46:40;;;;;;;17.60;10.48;;;;;;;16.78;60.43;101652.81;4981982;28;20078;-82
2023/06/08 05:49:05;;;;;;;15.35;10.35;;;;;;;16.71;60.03;101635.38;4978677;28;20470;-86
2023/06/08 05:51:31;;;;;;;18.60;10.40;;;;;;;16.67;60.43;101641.81;4986045;28;20026;-84
2023/06/08 05:53:56;;;;;;;19.45;10.30;;;;;;;16.73;60.34;101648.66;4983000;28;20477;-84
2023/06/08 05:56:21;;;;;;;17.77;10.70;;;;;;;16.82;60.20;101641.03;4986493;28;20038;-84
2023/06/08 05:58:47;;;;;;;19.08;10.40;;;;;;;16.87;59.99;101645.25;4988452;28;20026;-85
2023/06/08 06:01:13;;;;;;;19.35;10.27;;;;;;;16.94;59.69;101649.34;4983056;28;20037;-84
2023/06/08 06:03:38;;;;;;;18.63;10.68;;;;;;;17.05;60.04;101638.94;4985822;28;20045;-85
2023/06/08 06:06:03;;;;;;;17.38;10.15;;;;;;;17.12;59.82;101636.81;4983003;28;20046;-84
2023/06/08 06:08:29;;;;;;;16.63;10.45;;;;;;;17.19;59.74;101647.06;4984034;28;20026;-82
2023/06/08 06:10:54;;;;;;;17.88;10.02;;;;;;;17.21;58.86;101638.97;4988920;28;20041;-82
2023/06/08 06:13:21;;;;;;;20.48;10.35;;;;;;;17.25;59.42;101644.06;4985505;28;20032;-84
2023/06/08 06:15:46;;;;;;;19.58;11.52;;;;;;;17.32;58.50;101640.09;4987739;28;20039;-84
2023/06/08 06:18:11;;;;;;;18.77;10.82;;;;;;;17.46;58.75;101643.81;4989996;28;20015;-84
2023/06/08 06:20:37;;;;;;;16.67;10.15;;;;;;;17.69;57.98;101640.69;4986880;28;20092;-84
2023/06/08 06:23:02;;;;;;;18.00;10.63;;;;;;;17.91;57.87;101647.53;4988309;28;20509;-85
2023/06/08 06:25:27;;;;;;;20.70;9.70;;;;;;;18.11;57.21;101641.84;4983843;28;20109;-84
2023/06/08 06:27:52;;;;;;;20.25;10.13;;;;;;;18.35;56.70;101645.75;4987490;28;20064;-84
2023/06/08 06:30:18;;;;;;;19.10;9.75;;;;;;;18.48;56.59;101651.22;4989397;28;20026;-84
2023/06/08 06:32:43;;;;;;;21.58;11.02;;;;;;;18.65;55.97;101639.47;4988353;28;20030;-85
2023/06/08 06:35:10;;;;;;;17.95;10.63;;;;;;;18.85;55.33;101641.84;4969727;28;20030;-84
2023/06/08 06:37:35;;;;;;;18.38;10.32;;;;;;;18.97;54.74;101642.00;4966415;28;20054;-84
2023/06/08 06:40:03;;;;;;;19.55;10.30;;;;;;;19.16;54.73;101637.22;4983938;28;20069;-84
2023/06/08 06:42:29;;;;;;;17.27;10.13;;;;;;;19.34;54.47;101641.41;4986531;28;20027;-84
2023/06/08 06:44:54;;;;;;;19.52;10.63;;;;;;;19.47;54.06;101638.81;4988468;28;20098;-84
2023/06/08 06:47:20;;;;;;;18.90;11.25;;;;;;;19.74;54.13;101646.03;4989857;28;20647;-85
2023/06/08 06:49:45;;;;;;;19.95;10.75;;;;;;;19.82;53.83;101641.91;4981244;28;20034;-86
2023/06/08 06:52:11;;;;;;;20.58;10.27;;;;;;;19.99;53.55;101639.91;4981249;28;20030;-83
2023/06/08 06:54:36;;;;;;;19.85;10.40;;;;;;;20.20;53.19;101651.03;4982884;28;20038;-82
2023/06/08 06:57:01;;;;;;;17.58;10.00;;;;;;;20.27;52.69;101642.44;4970193;28;20444;-82
2023/06/08 06:59:28;;;;;;;19.00;11.18;;;;;;;20.38;52.07;101661.38;4987510;28;20034;-82
2023/06/08 07:01:53;;;;;;;17.95;11.20;;;;;;;20.44;51.89;101653.88;4985842;28;20490;-83
2023/06/08 07:04:19;;;;;;;19.30;11.90;;;;;;;20.46;51.48;101646.53;4987595;28;20053;-82
2023/06/08 07:06:47;;;;;;;17.88;11.85;;;;;;;20.55;51.81;101649.50;4984884;28;20038;-82
2023/06/08 07:09:12;;;;;;;19.50;11.65;;;;;;;20.74;51.70;101646.38;4988290;28;20028;-83
2023/06/08 07:11:37;;;;;;;19.80;11.60;;;;;;;20.93;52.61;101653.16;4987193;28;20038;-84
2023/06/08 07:14:03;;;;;;;18.48;10.55;;;;;;;21.04;51.64;101664.03;4984396;28;20454;-84
2023/06/08 07:16:28;;;;;;;20.48;10.70;;;;;;;21.17;51.85;101662.19;4989656;28;20030;-84
2023/06/08 07:18:53;;;;;;;21.08;12.15;;;;;;;21.18;50.33;101661.19;4981993;28;20022;-84
2023/06/08 07:21:21;;;;;;;17.20;11.13;;;;;;;21.35;50.17;101660.84;4986071;28;20058;-83
2023/06/08 07:23:48;;;;;;;22.05;11.63;;;;;;;21.50;50.32;101660.75;4983771;28;20492;-83
2023/06/08 07:26:13;;;;;;;20.77;11.35;;;;;;;21.67;52.34;101660.34;4983498;28;20032;-83
2023/06/08 07:28:39;;;;;;;19.85;11.57;;;;;;;21.91;50.48;101658.50;4983182;28;20600;-83
2023/06/08 07:31:04;;;;;;;18.95;12.60;;;;;;;22.54;48.90;101663.69;4983921;28;20034;-83
2023/06/08 07:33:29;;;;;;;22.30;12.55;;;;;;;22.99;47.63;101664.66;4984725;28;20014;-83
2023/06/08 07:35:55;;;;;;;16.95;10.98;;;;;;;23.57;46.40;101657.22;4987382;28;20068;-83
2023/06/08 07:38:20;;;;;;;17.77;11.02;;;;;;;24.05;45.09;101651.44;4982883;28;20516;-83
2023/06/08 07:40:46;;;;;;;15.70;10.40;;;;;;;24.43;44.57;101650.94;4973442;28;20034;-83
2023/06/08 07:43:11;;;;;;;20.83;11.63;;;;;;;24.90;42.55;101651.34;4986694;28;20081;-83
2023/06/08 07:45:36;;;;;;;20.30;12.02;;;;;;;25.29;41.49;101640.72;4981470;28;20057;-83
2023/06/08 07:48:02;;;;;;;19.95;12.30;;;;;;;25.72;39.43;101647.66;4985734;28;20481;-83
2023/06/08 07:50:27;;;;;;;18.75;12.68;;;;;;;25.82;38.54;101639.56;4987427;28;20030;-83
2023/06/08 07:52:52;;;;;;;18.77;12.45;;;;;;;26.23;39.42;101646.56;4978768;28;20128;-83
2023/06/08 07:55:17;;;;;;;16.98;11.82;;;;;;;26.47;38.98;101642.56;4980942;28;20362;-83
2023/06/08 07:57:44;;;;;;;19.88;12.40;;;;;;;26.71;39.17;101642.91;4984223;28;20117;-83
2023/06/08 08:00:10;;;;;;;18.52;11.85;;;;;;;26.96;38.06;101645.00;4984495;28;20037;-84
2023/06/08 08:02:35;;;;;;;21.65;11.45;;;;;;;27.32;37.54;101642.41;4978136;28;20375;-83
2023/06/08 08:05:02;;;;;;;19.88;11.75;;;;;;;27.53;37.14;101635.88;4985648;28;20086;-84
2023/06/08 08:07:27;;;;;;;17.80;11.30;;;;;;;27.72;36.24;101641.19;4987877;28;20417;-83
2023/06/08 08:09:53;;;;;;;16.88;11.77;;;;;;;27.84;36.97;101645.41;4986301;28;20022;-84
2023/06/08 08:12:18;;;;;;;17.55;11.20;;;;;;;28.08;35.22;101638.50;4966768;28;20019;-83
2023/06/08 08:14:44;;;;;;;14.60;10.73;;;;;;;28.25;34.72;101639.47;4981789;28;20045;-83
2023/06/08 08:17:09;;;;;;;18.08;11.07;;;;;;;28.51;35.18;101640.41;4984887;28;20516;-83
2023/06/08 08:19:34;;;;;;;17.13;11.85;;;;;;;28.39;35.10;101644.38;4977922;28;20022;-83
2023/06/08 08:21:59;;;;;;;14.18;10.52;;;;;;;28.72;34.39;101642.72;4965155;28;20473;-83
2023/06/08 08:24:25;;;;;;;19.98;11.65;;;;;;;29.09;33.85;101638.88;4975223;28;20026;-83
2023/06/08 08:26:54;;;;;;;16.83;11.13;;;;;;;29.24;33.88;101639.97;4981492;28;20029;-83
2023/06/08 08:29:19;;;;;;;20.50;12.27;;;;;;;29.60;33.25;101632.44;4985942;28;20027;-83
2023/06/08 08:31:45;;;;;;;14.90;10.35;;;;;;;29.88;33.43;101643.91;4114136;28;10000084;-83
2023/06/08 08:34:11;;;;;;;14.53;10.33;;;;;;;30.19;32.44;101635.94;4110684;28;10000838;-84
2023/06/08 08:36:37;;;;;;;13.75;11.43;;;;;;;30.18;31.88;101630.69;4982219;28;20289;-83
2023/06/08 08:39:03;;;;;;;14.23;10.20;;;;;;;30.24;32.88;101622.66;4986312;28;20366;-84
2023/06/08 08:41:31;;;;;;;16.40;10.48;;;;;;;30.26;32.36;101627.91;4963340;28;20489;-84
2023/06/08 08:44:04;;;;;;;18.45;10.57;;;;;;;30.26;32.58;101635.25;4980705;28;20176;-83
2023/06/08 08:46:34;;;;;;;16.45;9.95;;;;;;;30.24;32.38;101628.09;4987990;28;20489;-83
2023/06/08 08:49:05;;;;;;;19.13;10.55;;;;;;;29.53;33.89;101633.25;4978825;28;20474;-86
2023/06/08 08:51:32;;;;;;;19.40;10.70;;;;;;;28.79;34.13;101626.63;4982433;28;20029;-85
2023/06/08 08:54:00;;;;;;;15.20;10.23;;;;;;;28.37;35.20;101633.66;4982194;28;20034;-86
2023/06/08 08:56:28;;;;;;;15.93;10.85;;;;;;;28.81;34.31;101630.88;4981546;28;20485;-86
2023/06/08 08:58:54;;;;;;;15.57;10.77;;;;;;;29.25;34.06;101627.22;4982713;28;20508;-85
2023/06/08 09:01:21;;;;;;;14.57;10.00;;;;;;;29.51;33.35;101619.78;4978795;28;20034;-83
2023/06/08 09:03:46;;;;;;;13.50;9.57;;;;;;;29.72;33.80;101616.63;4983037;28;20482;-84
2023/06/08 09:06:12;;;;;;;11.77;9.27;;;;;;;29.73;34.50;101615.59;4981282;28;20057;-84
2023/06/08 09:08:38;;;;;;;18.83;10.32;;;;;;;29.74;32.90;101611.84;4984031;28;20030;-83
2023/06/08 09:11:05;;;;;;;14.43;10.15;;;;;;;29.62;33.00;101608.63;4980771;28;20391;-83
2023/06/08 09:13:34;;;;;;;15.15;10.57;;;;;;;29.62;34.26;101616.78;4980665;28;20026;-83
2023/06/08 09:16:14;;;;;;;14.45;9.55;;;;;;;29.65;34.64;101618.31;4982766;28;20501;-84
2023/06/08 09:18:41;;;;;;;16.30;10.18;;;;;;;29.59;34.05;101614.38;4983160;28;20027;-84
2023/06/08 09:21:29;;;;;;;12.32;9.45;;;;;;;29.79;34.62;101612.19;4980805;28;22043;-86
2023/06/08 09:24:11;;;;;;;12.57;9.15;;;;;;;29.84;33.71;101611.69;4974519;28;20022;-86
2023/06/08 09:26:47;;;;;;;14.60;9.75;;;;;;;29.75;33.71;101610.81;4983189;28;20114;-91
2023/06/08 09:29:32;;;;;;;15.05;8.98;;;;;;;29.95;33.61;101606.78;4965324;28;20034;-88
2023/06/08 09:32:00;;;;;;;18.02;9.18;;;;;;;29.95;33.53;101600.47;4983652;28;20031;-85
2023/06/08 09:34:25;;;;;;;14.02;9.48;;;;;;;29.93;34.04;101603.34;4982210;28;20041;-85
2023/06/08 09:37:03;;;;;;;14.53;9.47;;;;;;;29.84;33.33;101603.50;4984763;28;20026;-85
2023/06/08 09:39:38;;;;;;;15.27;9.55;;;;;;;30.14;33.27;101602.03;4989236;28;20313;-84
2023/06/08 09:42:03;;;;;;;12.75;8.27;;;;;;;30.20;33.37;101595.88;4986722;28;20494;-84
2023/06/08 09:44:29;;;;;;;15.38;9.10;;;;;;;30.22;32.30;101602.88;4969836;28;21144;-85
2023/06/08 09:46:54;;;;;;;12.43;8.65;;;;;;;30.33;32.20;101600.81;4983936;28;20521;-84
2023/06/08 09:49:19;;;;;;;15.43;8.80;;;;;;;30.35;32.23;101596.88;4982484;28;20126;-83
2023/06/08 09:51:50;;;;;;;11.77;8.27;;;;;;;30.55;31.95;101591.91;4985572;28;20027;-83
2023/06/08 09:54:19;;;;;;;13.90;9.35;;;;;;;30.68;31.65;101596.81;4988020;28;20477;-83
2023/06/08 09:56:54;;;;;;;11.98;8.60;;;;;;;30.81;31.30;101590.84;4989864;28;20498;-83
2023/06/08 09:59:22;;;;;;;11.82;7.57;;;;;;;30.80;31.59;101597.34;4984584;28;20143;-83
2023/06/08 10:01:55;;;;;;;10.00;7.30;;;;;;;31.30;31.80;101602.44;4985455;28;20058;-83
2023/06/08 10:04:34;;;;;;;14.25;7.90;;;;;;;31.41;30.39;101593.81;4986200;28;20046;-83
2023/06/08 10:07:03;;;;;;;9.10;6.45;;;;;;;31.49;30.36;101590.19;4987329;28;20278;-84
2023/06/08 10:09:34;;;;;;;14.63;6.95;;;;;;;31.54;29.14;101585.03;4988407;28;20058;-82
2023/06/08 10:12:00;;;;;;;9.47;7.57;;;;;;;31.48;30.36;101588.50;4988727;28;20041;-83
2023/06/08 10:14:26;;;;;;;16.08;8.27;;;;;;;31.46;31.04;101588.66;4984049;28;20776;-83
2023/06/08 10:16:55;;;;;;;9.18;6.25;;;;;;;31.61;30.98;101583.25;4971520;28;20038;-83
2023/06/08 10:19:21;;;;;;;8.45;6.25;;;;;;;32.02;30.64;101584.88;4989019;28;20042;-83
2023/06/08 10:21:48;;;;;;;11.77;7.45;;;;;;;32.19;29.52;101581.81;4990059;28;20018;-83
2023/06/08 10:24:14;;;;;;;10.05;6.60;;;;;;;32.37;29.19;101577.91;4990239;28;20046;-83
2023/06/08 10:26:39;;;;;;;11.95;6.90;;;;;;;32.31;28.84;101582.19;4986871;28;20026;-83
2023/06/08 10:29:10;;;;;;;9.37;7.30;;;;;;;32.13;29.51;101577.09;4984799;28;20581;-83
2023/06/08 10:31:47;;;;;;;11.37;7.07;;;;;;;32.42;28.44;101576.31;4972466;28;20293;-83
2023/06/08 10:34:14;;;;;;;10.70;7.20;;;;;;;32.38;28.12;101574.97;4988291;28;20022;-83
2023/06/08 10:36:42;;;;;;;10.35;6.95;;;;;;;32.72;27.79;101577.16;4984955;28;20517;-83
2023/06/08 10:39:16;;;;;;;10.93;6.85;;;;;;;32.68;28.06;101574.97;4991026;28;20061;-83
2023/06/08 10:41:56;;;;;;;11.60;6.28;;;;;;;32.44;29.03;101579.69;4991130;28;20393;-83
2023/06/08 10:44:26;;;;;;;9.00;5.93;;;;;;;32.29;28.59;101583.44;4988814;28;20109;-83
2023/06/08 10:47:03;;;;;;;9.43;6.35;;;;;;;32.14;29.02;101572.47;4970556;28;20042;-83
2023/06/08 10:49:30;;;;;;;9.77;6.80;;;;;;;32.27;28.25;101572.69;4986180;28;20030;-84
2023/06/08 10:51:56;;;;;;;13.30;7.18;;;;;;;32.43;27.78;101568.94;4981370;28;20075;-84
2023/06/08 10:54:25;;;;;;;11.77;6.57;;;;;;;32.66;28.41;101571.59;4986364;28;20062;-84
2023/06/08 10:56:53;;;;;;;13.98;7.20;;;;;;;33.09;26.72;101569.88;4987935;28;20042;-83
2023/06/08 10:59:33;;;;;;;11.55;7.38;;;;;;;32.90;27.13;101563.09;4988947;28;21592;-84
2023/06/08 11:02:04;;;;;;;9.55;6.80;;;;;;;32.58;27.64;101561.56;4984942;28;20030;-84
2023/06/08 11:04:31;;;;;;;9.73;6.57;;;;;;;32.64;28.47;101559.97;4981024;28;20442;-84
2023/06/08 11:07:04;;;;;;;11.93;6.32;;;;;;;32.81;27.63;101553.25;4970581;28;20676;-85
2023/06/08 11:09:38;;;;;;;9.07;5.97;;;;;;;32.91;27.57;101550.25;4980196;28;20426;-84
2023/06/08 11:12:05;;;;;;;12.27;7.13;;;;;;;32.76;27.46;101545.59;4983559;28;20453;-84
2023/06/08 11:14:30;;;;;;;11.82;6.57;;;;;;;32.73;27.11;101545.97;4984137;28;20027;-85